Time;durP1;ratioP1;P1;durP2;ratioP2;P2;SDS_P1;SDS_P2;PMS_P1;PMS_P2;Temp;Humidity;BMP_temperature;BMP_pressure;BME280_temperature;BME280_humidity;BME280_pressure;Samples;Min_cycle;Max_cycle;Signal;HPM_P1;HPM_P2
2023/04/22 00:01:20;;;;;;;32.47;16.42;;;;;;;12.39;68.86;100935.72;4965535;28;20064;-40
2023/04/22 00:03:45;;;;;;;28.55;17.30;;;;;;;12.27;69.19;100933.03;4962095;28;20035;-39
2023/04/22 00:06:10;;;;;;;33.85;17.85;;;;;;;12.17;69.70;100937.34;4965687;28;20080;-40
2023/04/22 00:08:36;;;;;;;30.58;17.55;;;;;;;12.17;69.81;100941.69;4962093;28;20042;-40
2023/04/22 00:11:02;;;;;;;35.78;18.45;;;;;;;11.95;70.79;100939.75;4964979;28;20034;-40
2023/04/22 00:13:27;;;;;;;33.80;18.15;;;;;;;11.88;71.96;100940.56;4965581;28;20049;-40
2023/04/22 00:15:53;;;;;;;36.13;18.58;;;;;;;11.98;71.09;100939.78;4962291;28;20053;-39
2023/04/22 00:18:18;;;;;;;31.88;17.20;;;;;;;12.03;70.87;100927.63;4964928;28;20038;-40
2023/04/22 00:20:44;;;;;;;31.00;17.05;;;;;;;12.06;70.51;100935.50;4961806;28;20038;-41
2023/04/22 00:23:11;;;;;;;31.55;16.83;;;;;;;12.03;69.84;100936.34;4963895;28;20034;-38
2023/04/22 00:25:37;;;;;;;37.22;18.35;;;;;;;11.86;71.42;100939.66;4962351;28;20690;-39
2023/04/22 00:28:02;;;;;;;33.72;18.17;;;;;;;11.85;71.10;100935.28;4964982;28;20027;-40
2023/04/22 00:30:28;;;;;;;33.85;18.05;;;;;;;11.93;70.61;100934.50;4965203;28;20031;-41
2023/04/22 00:32:53;;;;;;;35.60;18.80;;;;;;;11.80;71.06;100930.03;4963511;28;20066;-40
2023/04/22 00:35:18;;;;;;;38.08;19.70;;;;;;;11.78;71.25;100929.13;4971187;28;20062;-40
2023/04/22 00:37:43;;;;;;;34.70;18.73;;;;;;;11.90;70.61;100936.19;4964642;28;20039;-40
2023/04/22 00:40:10;;;;;;;33.55;17.75;;;;;;;11.89;70.09;100931.88;4964723;28;20030;-39
2023/04/22 00:42:36;;;;;;;34.45;17.65;;;;;;;11.90;70.16;100941.44;4961697;28;20513;-40
2023/04/22 00:45:01;;;;;;;35.92;17.98;;;;;;;11.81;70.47;100944.84;4964864;28;20045;-40
2023/04/22 00:47:28;;;;;;;33.72;17.75;;;;;;;11.76;70.34;100938.72;4964484;28;20039;-40
2023/04/22 00:49:54;;;;;;;33.42;17.73;;;;;;;11.73;70.35;100938.63;4961792;28;20051;-40
2023/04/22 00:52:19;;;;;;;33.60;17.65;;;;;;;11.74;70.15;100935.19;4964954;28;20030;-41
2023/04/22 00:54:45;;;;;;;34.85;18.15;;;;;;;11.67;70.49;100943.78;4961141;28;20038;-40
2023/04/22 00:57:11;;;;;;;37.20;18.45;;;;;;;11.69;70.12;100937.75;4964411;28;20244;-40
2023/04/22 00:59:36;;;;;;;33.60;17.42;;;;;;;11.69;70.19;100932.53;4962054;28;20058;-41
2023/04/22 01:02:02;;;;;;;34.42;18.45;;;;;;;11.70;70.14;100938.63;4964609;28;20045;-40
2023/04/22 01:04:29;;;;;;;33.88;17.52;;;;;;;11.69;70.03;100940.34;4964042;28;20489;-44
2023/04/22 01:06:54;;;;;;;35.17;18.30;;;;;;;11.62;70.26;100941.16;4962224;28;20133;-43
2023/04/22 01:09:20;;;;;;;34.90;18.50;;;;;;;11.57;70.44;100940.22;4965999;28;20106;-40
2023/04/22 01:11:46;;;;;;;34.03;18.63;;;;;;;11.52;70.52;100941.03;4962434;28;20070;-39
2023/04/22 01:14:11;;;;;;;36.33;19.00;;;;;;;11.48;70.21;100952.28;4964516;28;20034;-40
2023/04/22 01:16:39;;;;;;;37.15;18.92;;;;;;;11.43;70.43;100949.63;4966409;28;20053;-41
2023/04/22 01:19:05;;;;;;;37.53;19.05;;;;;;;11.44;70.41;100943.56;4970848;28;20038;-38
2023/04/22 01:21:33;;;;;;;37.80;18.92;;;;;;;11.42;70.17;100940.06;4968672;28;20052;-39
2023/04/22 01:23:59;;;;;;;35.22;17.95;;;;;;;11.42;70.04;100934.84;4961913;28;20039;-39
2023/04/22 01:26:25;;;;;;;35.10;18.17;;;;;;;11.40;70.33;100942.63;4966198;28;20035;-41
2023/04/22 01:28:50;;;;;;;33.33;17.73;;;;;;;11.37;70.19;100934.78;4962900;28;20123;-41
2023/04/22 01:31:16;;;;;;;36.17;17.92;;;;;;;11.32;70.33;100935.59;4966589;28;20042;-39
2023/04/22 01:33:41;;;;;;;38.53;19.70;;;;;;;11.26;70.43;100935.53;4963171;28;20042;-40
2023/04/22 01:36:07;;;;;;;39.78;19.30;;;;;;;11.21;70.04;100942.44;4966805;28;20519;-37
2023/04/22 01:38:33;;;;;;;37.60;19.10;;;;;;;11.16;69.93;100936.28;4966490;28;20049;-44
2023/04/22 01:41:02;;;;;;;38.05;19.55;;;;;;;11.12;70.21;100939.69;4964124;28;20041;-39
2023/04/22 01:45:54;;;;;;;38.38;19.70;;;;;;;11.05;70.49;100924.81;4988505;23;20046;-45
2023/04/22 01:48:19;;;;;;;38.55;18.52;;;;;;;11.06;70.32;100924.84;4968674;28;20049;-43
2023/04/22 01:50:45;;;;;;;37.35;18.50;;;;;;;11.09;70.22;100924.03;4968436;28;20475;-43
2023/04/22 01:53:10;;;;;;;38.28;18.25;;;;;;;11.14;70.21;100924.94;4987461;28;20027;-44
2023/04/22 01:55:37;;;;;;;39.90;20.02;;;;;;;11.05;70.46;100928.31;4969368;28;20050;-44
2023/04/22 01:58:03;;;;;;;41.03;19.83;;;;;;;11.05;70.42;100924.81;4973385;28;20046;-44
2023/04/22 02:00:29;;;;;;;41.70;20.63;;;;;;;10.96;70.26;100923.00;4975035;28;20049;-45
2023/04/22 02:02:54;;;;;;;42.70;20.92;;;;;;;10.89;70.41;100927.25;4971495;28;20039;-43
2023/04/22 02:05:20;;;;;;;46.35;20.73;;;;;;;10.93;70.91;100930.75;4973951;28;20031;-43
2023/04/22 02:07:45;;;;;;;55.20;23.75;;;;;;;10.96;71.24;100931.69;4968711;28;20558;-44
2023/04/22 02:10:11;;;;;;;54.17;23.55;;;;;;;10.97;71.46;100924.75;4970745;28;20030;-43
2023/04/22 02:12:37;;;;;;;54.28;24.13;;;;;;;11.01;71.51;100923.03;4968162;28;20050;-45
2023/04/22 02:15:02;;;;;;;53.42;23.98;;;;;;;11.15;71.87;100926.72;4971898;28;20037;-41
2023/04/22 02:17:28;;;;;;;50.53;23.67;;;;;;;11.19;71.88;100921.53;4965975;28;20118;-42
2023/04/22 02:19:53;;;;;;;50.63;23.30;;;;;;;11.13;72.11;100925.81;4961873;28;20050;-45
2023/04/22 02:22:20;;;;;;;48.78;23.90;;;;;;;11.14;72.31;100925.84;4971885;28;20046;-42
2023/04/22 02:24:45;;;;;;;51.35;23.77;;;;;;;11.23;71.94;100928.53;4970978;28;20034;-41
2023/04/22 02:27:10;;;;;;;54.30;24.58;;;;;;;11.12;72.00;100922.31;4974603;28;20042;-43
2023/04/22 02:29:36;;;;;;;50.25;23.95;;;;;;;11.34;71.13;100919.06;4966359;28;20038;-42
2023/04/22 02:32:01;;;;;;;50.60;23.90;;;;;;;11.32;71.28;100915.59;4966315;28;20041;-41
2023/04/22 02:34:26;;;;;;;48.80;23.02;;;;;;;11.33;70.90;100921.69;4965388;28;20027;-45
2023/04/22 02:36:52;;;;;;;49.40;23.15;;;;;;;11.27;70.61;100916.41;4971302;28;20039;-44
2023/04/22 02:39:17;;;;;;;48.42;23.55;;;;;;;11.23;70.67;100915.47;4972198;28;20031;-44
2023/04/22 02:41:42;;;;;;;51.33;23.23;;;;;;;11.15;70.86;100924.97;4962513;28;20121;-43
2023/04/22 02:44:08;;;;;;;49.22;23.58;;;;;;;11.07;70.71;100924.00;4965379;28;20039;-44
2023/04/22 02:46:33;;;;;;;50.13;23.55;;;;;;;11.11;70.82;100912.72;4966476;28;20035;-46
2023/04/22 02:48:58;;;;;;;52.28;23.75;;;;;;;10.92;70.62;100915.97;4968006;28;20556;-43
2023/04/22 02:51:24;;;;;;;52.88;24.42;;;;;;;10.96;71.07;100916.06;4970325;28;20544;-46
2023/04/22 02:53:49;;;;;;;52.03;23.38;;;;;;;10.98;70.90;100913.44;4963077;28;20069;-43
2023/04/22 02:56:14;;;;;;;52.30;22.73;;;;;;;10.98;70.65;100910.81;4965129;28;20060;-43
2023/04/22 02:58:40;;;;;;;50.00;24.25;;;;;;;10.96;70.63;100899.53;4961019;28;20097;-45
2023/04/22 03:01:05;;;;;;;50.17;23.38;;;;;;;10.96;71.19;100905.63;4966420;28;20030;-43
2023/04/22 03:03:30;;;;;;;60.83;25.77;;;;;;;10.81;71.25;100902.78;4966330;28;20400;-43
2023/04/22 03:05:56;;;;;;;55.33;25.38;;;;;;;10.87;71.50;100895.06;4961624;28;20041;-45
2023/04/22 03:08:21;;;;;;;58.78;25.73;;;;;;;10.99;71.46;100897.81;4965331;28;20035;-44
2023/04/22 03:10:47;;;;;;;56.85;26.15;;;;;;;10.89;71.46;100889.88;4960927;28;20027;-42
2023/04/22 03:13:13;;;;;;;53.03;24.55;;;;;;;10.96;71.56;100886.47;4965817;28;20039;-44
2023/04/22 03:15:39;;;;;;;56.15;25.02;;;;;;;10.62;73.21;100884.28;4962560;28;20069;-45
2023/04/22 03:18:05;;;;;;;53.35;24.90;;;;;;;10.60;73.27;100883.41;4966767;28;20050;-43
2023/04/22 03:20:30;;;;;;;52.67;24.52;;;;;;;10.62;73.92;100879.06;4966523;28;20526;-41
2023/04/22 03:22:55;;;;;;;53.33;25.50;;;;;;;10.74;73.48;100874.88;4962716;28;20042;-44
2023/04/22 03:25:21;;;;;;;53.42;25.13;;;;;;;10.88;73.20;100877.66;4965189;28;20501;-46
2023/04/22 03:27:46;;;;;;;52.83;24.88;;;;;;;10.96;72.40;100879.53;4961921;28;20126;-40
2023/04/22 03:30:11;;;;;;;51.08;23.80;;;;;;;11.08;71.99;100873.56;4964782;28;20057;-45
2023/04/22 03:32:37;;;;;;;54.97;24.35;;;;;;;11.22;72.17;100871.13;4960861;28;20133;-42
2023/04/22 03:35:02;;;;;;;50.28;23.42;;;;;;;11.27;71.94;100867.69;4968758;28;20027;-42
2023/04/22 03:37:27;;;;;;;55.50;24.33;;;;;;;11.34;72.02;100863.41;4966389;28;20532;-46
2023/04/22 03:39:53;;;;;;;52.03;24.25;;;;;;;11.37;71.49;100853.88;4961929;28;20605;-42
2023/04/22 03:42:18;;;;;;;54.67;25.58;;;;;;;11.19;72.30;100856.28;4965060;28;20065;-42
2023/04/22 03:44:43;;;;;;;59.47;26.35;;;;;;;11.18;72.87;100856.28;4962671;28;20069;-42
2023/04/22 03:47:09;;;;;;;55.95;26.42;;;;;;;11.26;72.66;100849.41;4969847;28;20031;-43
2023/04/22 03:49:34;;;;;;;59.17;26.17;;;;;;;11.46;71.91;100845.28;4967041;28;20041;-49
2023/04/22 03:52:00;;;;;;;56.72;26.20;;;;;;;11.54;71.59;100845.31;4969687;28;20031;-43
2023/04/22 03:54:25;;;;;;;56.05;25.63;;;;;;;11.37;72.29;100842.56;4971217;28;20058;-42
2023/04/22 03:56:51;;;;;;;56.15;25.02;;;;;;;11.50;71.65;100852.25;4970262;28;20055;-43
2023/04/22 03:59:17;;;;;;;55.95;25.30;;;;;;;11.49;71.80;100845.28;4972047;28;20059;-45
2023/04/22 04:01:44;;;;;;;54.00;25.35;;;;;;;11.51;71.95;100845.31;4966382;28;20041;-43
2023/04/22 04:04:10;;;;;;;54.35;25.73;;;;;;;11.50;71.75;100846.16;4970675;28;20054;-44
2023/04/22 04:06:35;;;;;;;53.25;25.08;;;;;;;11.48;71.75;100840.91;4967754;28;20069;-44
2023/04/22 04:09:01;;;;;;;51.78;24.33;;;;;;;11.46;71.60;100831.34;4970552;28;20073;-44
2023/04/22 04:11:26;;;;;;;54.72;25.48;;;;;;;11.45;72.11;100829.59;4971612;28;20035;-43
2023/04/22 04:13:51;;;;;;;55.17;25.60;;;;;;;11.50;71.98;100835.72;4967190;28;20030;-42
2023/04/22 04:16:17;;;;;;;53.60;24.70;;;;;;;11.45;71.71;100830.47;4968804;28;20046;-43
2023/04/22 04:18:42;;;;;;;54.78;25.52;;;;;;;11.46;72.08;100827.00;4966654;28;20071;-42
2023/04/22 04:21:07;;;;;;;49.33;23.95;;;;;;;11.54;71.67;100827.91;4975614;28;20046;-47
2023/04/22 04:23:33;;;;;;;54.67;25.20;;;;;;;11.51;72.08;100820.06;4972596;28;20075;-43
2023/04/22 04:26:01;;;;;;;49.78;23.73;;;;;;;11.53;71.88;100826.16;4969083;28;20134;-44
2023/04/22 04:28:31;;;;;;;52.92;24.88;;;;;;;11.51;71.59;100817.47;4966973;28;20383;-46
2023/04/22 04:30:57;;;;;;;49.95;24.65;;;;;;;11.51;71.58;100821.81;4964779;28;20169;-42
2023/04/22 04:33:23;;;;;;;53.50;24.52;;;;;;;11.49;71.69;100819.16;4972434;28;20122;-45
2023/04/22 04:35:48;;;;;;;48.75;23.98;;;;;;;11.45;71.46;100822.63;4967946;28;20125;-43
2023/04/22 04:38:14;;;;;;;51.20;24.65;;;;;;;11.36;72.10;100827.75;4968938;28;20035;-42
2023/04/22 04:40:39;;;;;;;45.88;23.33;;;;;;;11.48;71.44;100819.16;4963393;28;20034;-42
2023/04/22 04:43:07;;;;;;;46.17;23.13;;;;;;;11.40;71.86;100812.13;4971155;28;20059;-47
2023/04/22 04:45:35;;;;;;;46.70;23.10;;;;;;;11.51;71.65;100813.97;4971094;28;20038;-43
2023/04/22 04:48:01;;;;;;;47.67;23.75;;;;;;;11.46;71.63;100811.34;4962688;28;20516;-45
2023/04/22 04:50:27;;;;;;;46.95;23.70;;;;;;;11.52;71.46;100824.44;4970436;28;20031;-41
2023/04/22 04:52:52;;;;;;;51.15;28.30;;;;;;;11.44;71.45;100812.16;4969210;28;20095;-43
2023/04/22 04:55:18;;;;;;;51.20;28.42;;;;;;;11.54;71.58;100816.59;4970365;28;20123;-43
2023/04/22 04:57:44;;;;;;;49.42;25.23;;;;;;;11.55;71.65;100818.34;4963184;28;20118;-45
2023/04/22 05:00:10;;;;;;;47.67;24.90;;;;;;;11.43;71.74;100807.81;4967020;28;20097;-46
2023/04/22 05:02:35;;;;;;;54.42;28.65;;;;;;;11.52;71.58;100805.28;4964373;28;20030;-46
2023/04/22 05:05:01;;;;;;;52.40;26.80;;;;;;;11.61;71.46;100811.44;4969300;28;20035;-42
2023/04/22 05:07:26;;;;;;;50.50;26.17;;;;;;;11.66;72.06;100811.47;4968777;28;20039;-44
2023/04/22 05:09:52;;;;;;;49.55;25.08;;;;;;;11.63;71.63;100803.63;4967200;28;20043;-47
2023/04/22 05:12:18;;;;;;;48.08;23.73;;;;;;;11.70;71.60;100802.81;4974249;28;20027;-42
2023/04/22 05:14:43;;;;;;;45.30;23.52;;;;;;;11.77;71.40;100797.66;4967502;28;20043;-43
2023/04/22 05:17:09;;;;;;;45.30;23.00;;;;;;;11.81;71.56;100800.31;4969290;28;20030;-48
2023/04/22 05:19:34;;;;;;;45.00;22.65;;;;;;;11.83;71.96;100809.91;4965598;28;20026;-55
2023/04/22 05:22:00;;;;;;;47.47;22.83;;;;;;;11.87;72.20;100814.28;4966683;28;20042;-43
2023/04/22 05:24:25;;;;;;;44.83;23.00;;;;;;;11.94;71.55;100820.44;4968631;28;20094;-43
2023/04/22 05:26:51;;;;;;;42.58;22.08;;;;;;;11.91;71.60;100815.19;4964972;28;20544;-43
2023/04/22 05:29:16;;;;;;;42.72;22.40;;;;;;;11.84;71.89;100821.22;4967911;28;20170;-46
2023/04/22 05:31:41;;;;;;;47.63;24.48;;;;;;;11.74;71.90;100822.91;4962548;28;20497;-42
2023/04/22 05:34:07;;;;;;;46.92;23.77;;;;;;;11.91;71.89;100828.25;4965502;28;20030;-44
2023/04/22 05:36:32;;;;;;;47.83;23.00;;;;;;;12.03;72.16;100833.53;4966887;28;20037;-43
2023/04/22 05:38:57;;;;;;;48.22;23.60;;;;;;;11.98;71.77;100830.91;4963509;28;20452;-44
2023/04/22 05:41:23;;;;;;;44.45;23.52;;;;;;;11.99;71.79;100835.28;4968084;28;20433;-43
2023/04/22 05:43:48;;;;;;;44.60;23.00;;;;;;;12.02;72.11;100826.56;4962881;28;20062;-42
2023/04/22 05:46:14;;;;;;;46.47;24.00;;;;;;;12.09;71.83;100837.09;4966200;28;20035;-45
2023/04/22 05:48:39;;;;;;;45.55;23.27;;;;;;;12.04;71.85;100830.06;4962621;28;20401;-42
2023/04/22 05:51:04;;;;;;;38.90;21.20;;;;;;;12.21;72.27;100833.66;4965351;28;20093;-45
2023/04/22 05:53:30;;;;;;;36.88;20.52;;;;;;;12.29;71.92;100831.09;4966112;28;20050;-46
2023/04/22 05:55:55;;;;;;;37.85;20.77;;;;;;;12.40;71.89;100834.66;4961645;28;20034;-42
2023/04/22 05:58:20;;;;;;;40.38;20.63;;;;;;;12.44;71.78;100832.03;4965067;28;20038;-47
2023/04/22 06:00:46;;;;;;;35.97;20.35;;;;;;;12.50;72.19;100829.47;4962547;28;20070;-42
2023/04/22 06:03:11;;;;;;;39.38;21.23;;;;;;;12.51;72.28;100822.50;4966729;28;20031;-44
2023/04/22 06:05:36;;;;;;;36.22;20.48;;;;;;;12.65;71.81;100818.22;4963387;28;20516;-46
2023/04/22 06:08:02;;;;;;;37.55;20.83;;;;;;;12.84;71.63;100816.53;4965666;28;20054;-41
2023/04/22 06:10:27;;;;;;;37.63;20.25;;;;;;;12.90;71.82;100816.56;4965957;28;20034;-42
2023/04/22 06:12:52;;;;;;;34.75;19.85;;;;;;;12.93;71.21;100816.53;4961955;28;20043;-44
2023/04/22 06:15:18;;;;;;;33.28;19.90;;;;;;;12.91;70.82;100808.72;4966835;28;20058;-44
2023/04/22 06:17:44;;;;;;;36.05;20.40;;;;;;;13.01;70.63;100800.00;4963418;28;20039;-43
2023/04/22 06:20:10;;;;;;;34.67;20.08;;;;;;;13.14;70.44;100794.84;4972753;28;20031;-50
2023/04/22 06:22:36;;;;;;;33.80;20.55;;;;;;;13.10;70.07;100796.56;4969287;28;20039;-46
2023/04/22 06:25:01;;;;;;;34.03;20.42;;;;;;;13.10;69.98;100800.91;4966850;28;20098;-42
2023/04/22 06:27:27;;;;;;;31.85;19.45;;;;;;;13.38;70.48;100798.34;4967020;28;20121;-44
2023/04/22 06:29:52;;;;;;;32.35;19.73;;;;;;;13.51;70.25;100796.63;4965579;28;20160;-45
2023/04/22 06:32:17;;;;;;;31.77;19.65;;;;;;;13.40;70.06;100795.75;4968413;28;20042;-42
2023/04/22 06:34:43;;;;;;;33.30;19.80;;;;;;;13.62;69.95;100794.88;4965591;28;20034;-43
2023/04/22 06:37:08;;;;;;;30.50;19.80;;;;;;;13.68;69.29;100804.47;4972158;28;20063;-44
2023/04/22 06:39:33;;;;;;;32.22;19.73;;;;;;;13.71;69.53;100791.38;4971462;28;20037;-44
2023/04/22 06:42:00;;;;;;;30.45;19.45;;;;;;;13.78;69.33;100787.88;4967340;28;20053;-46
2023/04/22 06:44:26;;;;;;;29.33;18.90;;;;;;;13.85;69.17;100784.34;4969721;28;20058;-43
2023/04/22 06:46:51;;;;;;;28.73;18.95;;;;;;;13.81;68.41;100793.09;4966210;28;20030;-42
2023/04/22 06:49:16;;;;;;;27.77;18.95;;;;;;;13.88;67.88;100792.22;4968025;28;20424;-44
2023/04/22 06:51:41;;;;;;;27.55;18.17;;;;;;;14.14;68.63;100782.56;4967778;28;20054;-44
2023/04/22 06:54:07;;;;;;;25.00;17.95;;;;;;;14.42;67.85;100787.75;4970971;28;20101;-43
2023/04/22 06:56:32;;;;;;;25.55;17.33;;;;;;;14.63;67.04;100785.06;4967487;28;20121;-44
2023/04/22 06:58:57;;;;;;;25.40;17.63;;;;;;;14.58;66.05;100771.94;4962484;28;20497;-42
2023/04/22 07:01:23;;;;;;;27.08;17.98;;;;;;;14.83;65.29;100783.19;4964555;28;20031;-44
2023/04/22 07:03:48;;;;;;;28.20;18.83;;;;;;;14.70;64.34;100776.25;4959421;28;20039;-42
2023/04/22 07:06:14;;;;;;;27.77;19.25;;;;;;;14.70;64.44;100773.63;4965712;28;20023;-46
2023/04/22 07:08:39;;;;;;;26.55;19.00;;;;;;;14.59;63.29;100771.06;4962611;28;20067;-44
2023/04/22 07:11:05;;;;;;;28.75;20.02;;;;;;;14.77;63.59;100772.72;4964764;28;20039;-47
2023/04/22 07:13:32;;;;;;;28.13;19.73;;;;;;;14.83;63.03;100775.31;4963473;28;20097;-43
2023/04/22 07:15:59;;;;;;;28.73;19.77;;;;;;;14.95;63.00;100769.09;4960862;28;20039;-48
2023/04/22 07:18:24;;;;;;;27.88;19.73;;;;;;;15.20;63.15;100781.19;4964615;28;20035;-42
2023/04/22 07:20:50;;;;;;;27.00;18.20;;;;;;;15.61;63.06;100778.31;4962839;28;20042;-45
2023/04/22 07:23:15;;;;;;;26.35;18.52;;;;;;;16.24;60.69;100768.00;4968273;28;20035;-42
2023/04/22 07:25:40;;;;;;;25.50;18.77;;;;;;;16.41;58.24;100773.94;4964804;28;20039;-44
2023/04/22 07:28:06;;;;;;;24.35;18.38;;;;;;;17.32;56.75;100769.22;4968493;28;20085;-43
2023/04/22 07:30:31;;;;;;;26.50;18.95;;;;;;;17.35;55.32;100771.78;4967505;28;20035;-43
2023/04/22 07:32:56;;;;;;;27.63;18.35;;;;;;;18.01;55.24;100776.81;4964065;28;20030;-44
2023/04/22 07:35:22;;;;;;;25.50;19.13;;;;;;;19.28;50.85;100773.25;4967498;28;20031;-42
2023/04/22 07:37:47;;;;;;;26.65;19.83;;;;;;;18.91;50.89;100782.03;4963898;28;20517;-42
2023/04/22 07:40:12;;;;;;;24.40;18.40;;;;;;;19.34;50.28;100787.19;4967176;28;20034;-43
2023/04/22 07:42:39;;;;;;;27.55;20.05;;;;;;;18.33;51.77;100792.03;4964847;28;20042;-43
2023/04/22 07:45:05;;;;;;;28.92;21.48;;;;;;;17.78;54.04;100796.56;4972667;28;20072;-43
2023/04/22 07:47:30;;;;;;;29.15;20.52;;;;;;;17.49;54.75;100790.00;4972189;28;20043;-43
2023/04/22 07:49:56;;;;;;;28.70;20.83;;;;;;;18.23;54.24;100781.69;4964718;28;20095;-44
2023/04/22 07:52:21;;;;;;;29.98;21.77;;;;;;;18.87;52.03;100776.84;4967354;28;20535;-46
2023/04/22 07:54:47;;;;;;;26.58;19.23;;;;;;;20.30;47.66;100776.81;4967010;28;20031;-44
2023/04/22 07:57:12;;;;;;;24.95;19.17;;;;;;;20.56;46.83;100771.63;4975293;28;20070;-44
2023/04/22 07:59:38;;;;;;;23.92;17.90;;;;;;;20.10;46.62;100769.41;4973289;28;20039;-43
2023/04/22 08:02:03;;;;;;;22.77;16.92;;;;;;;19.81;46.54;100761.38;4968888;28;20401;-42
2023/04/22 08:04:28;;;;;;;21.73;16.75;;;;;;;20.57;44.33;100746.03;4967530;28;20085;-45
2023/04/22 08:06:54;;;;;;;22.80;17.80;;;;;;;20.20;44.99;100741.75;4963991;28;20043;-43
2023/04/22 08:09:20;;;;;;;21.33;16.05;;;;;;;20.30;45.72;100739.72;4967027;28;20485;-44
2023/04/22 08:11:45;;;;;;;25.33;17.92;;;;;;;19.28;46.29;100736.25;4963648;28;20042;-43
2023/04/22 08:14:10;;;;;;;21.88;16.88;;;;;;;19.16;47.01;100729.47;4965951;28;20046;-45
2023/04/22 08:16:37;;;;;;;20.70;15.98;;;;;;;19.00;47.50;100736.03;4963235;28;20034;-43
2023/04/22 08:19:02;;;;;;;21.52;16.13;;;;;;;19.33;47.13;100739.66;4966602;28;20138;-43
2023/04/22 08:21:28;;;;;;;21.52;15.48;;;;;;;19.36;47.29;100737.81;4966680;28;20031;-44
2023/04/22 08:23:53;;;;;;;20.05;15.27;;;;;;;18.35;48.87;100742.75;4962700;28;20084;-43
2023/04/22 08:26:19;;;;;;;22.92;16.63;;;;;;;17.68;52.48;100738.75;4972016;28;20114;-43
2023/04/22 08:28:45;;;;;;;23.00;17.02;;;;;;;18.04;52.42;100739.84;4968331;28;20085;-41
2023/04/22 08:31:11;;;;;;;20.33;15.70;;;;;;;18.76;50.57;100739.25;4967720;28;20565;-54
2023/04/22 08:33:38;;;;;;;19.83;15.50;;;;;;;19.25;48.63;100741.63;4966009;28;20033;-43
2023/04/22 08:36:03;;;;;;;18.77;14.38;;;;;;;19.43;47.59;100746.44;4971059;28;20056;-42
2023/04/22 08:38:29;;;;;;;20.40;15.20;;;;;;;19.39;47.06;100744.81;4971267;28;20565;-43
2023/04/22 08:40:55;;;;;;;19.92;14.80;;;;;;;19.54;46.45;100744.44;4967912;28;20098;-47
2023/04/22 08:43:21;;;;;;;19.35;14.60;;;;;;;19.48;46.96;100741.06;4971971;28;20031;-44
2023/04/22 08:45:48;;;;;;;18.25;13.85;;;;;;;19.42;45.60;100731.50;4964720;28;20532;-43
2023/04/22 08:48:14;;;;;;;17.50;13.85;;;;;;;19.48;47.69;100734.00;4966231;28;20405;-41
2023/04/22 08:50:40;;;;;;;17.30;13.52;;;;;;;19.22;47.26;100728.47;4962697;28;20037;-44
2023/04/22 08:53:05;;;;;;;17.73;13.20;;;;;;;18.52;47.91;100725.66;4968602;28;20035;-41
2023/04/22 08:55:31;;;;;;;17.90;12.32;;;;;;;18.90;45.99;100730.13;4969036;28;20034;-51
2023/04/22 08:57:59;;;;;;;18.10;12.75;;;;;;;18.93;47.53;100722.09;4966520;28;20046;-43
2023/04/22 09:00:26;;;;;;;14.98;11.18;;;;;;;19.12;45.12;100719.91;4971086;28;20058;-45
2023/04/22 09:02:52;;;;;;;16.83;11.80;;;;;;;19.14;45.85;100701.38;4967811;28;20047;-43
2023/04/22 09:05:22;;;;;;;15.13;11.07;;;;;;;19.06;47.82;100698.91;4971265;28;20031;-44
2023/04/22 09:07:47;;;;;;;14.60;10.95;;;;;;;19.05;45.62;100691.88;4967527;28;20042;-46
2023/04/22 09:10:13;;;;;;;11.45;9.00;;;;;;;19.24;44.22;100684.38;4966548;28;20481;-41
2023/04/22 09:12:40;;;;;;;11.73;9.45;;;;;;;19.50;43.13;100684.63;4966289;28;20046;-43
2023/04/22 09:15:06;;;;;;;13.38;9.60;;;;;;;19.76;44.24;100687.41;4971232;28;20035;-43
2023/04/22 09:17:33;;;;;;;12.10;9.50;;;;;;;19.74;45.02;100680.44;4970454;28;20058;-45
2023/04/22 09:20:00;;;;;;;14.23;11.20;;;;;;;19.63;43.05;100675.47;4965780;28;20027;-42
2023/04/22 09:22:43;;;;;;;14.70;10.95;;;;;;;19.69;45.14;100672.66;4969552;28;20030;-44
2023/04/22 09:25:16;;;;;;;14.02;10.23;;;;;;;19.57;44.75;100670.31;4965669;28;20113;-40
2023/04/22 09:27:41;;;;;;;12.20;9.98;;;;;;;19.70;45.12;100677.00;4962535;28;20174;-44
2023/04/22 09:30:08;;;;;;;11.60;9.15;;;;;;;19.79;44.90;100668.81;4966251;28;20117;-42
2023/04/22 09:32:34;;;;;;;15.55;11.82;;;;;;;19.33;45.98;100661.19;4965004;28;20106;-45
2023/04/22 09:35:00;;;;;;;14.05;10.88;;;;;;;18.74;47.24;100672.38;4962077;28;20273;-43
2023/04/22 09:37:26;;;;;;;17.10;12.60;;;;;;;19.02;47.87;100682.28;4965478;28;20039;-43
2023/04/22 09:39:51;;;;;;;18.38;13.48;;;;;;;18.71;49.61;100683.91;4961925;28;20041;-42
2023/04/22 09:42:18;;;;;;;15.57;12.15;;;;;;;18.22;49.87;100692.84;4965241;28;20041;-45
2023/04/22 09:44:46;;;;;;;16.33;12.35;;;;;;;18.45;48.80;100694.13;4962221;28;20038;-44
2023/04/22 09:47:11;;;;;;;18.02;13.00;;;;;;;18.32;49.17;100693.50;4965624;28;20038;-47
2023/04/22 09:49:40;;;;;;;16.83;12.57;;;;;;;18.30;50.36;100682.13;4962255;28;20073;-46
2023/04/22 09:52:05;;;;;;;16.17;12.88;;;;;;;17.61;52.53;100716.91;4965493;28;20031;-45
2023/04/22 09:54:31;;;;;;;17.65;13.25;;;;;;;17.55;52.41;100743.34;4965761;28;20042;-42
2023/04/22 09:56:56;;;;;;;17.83;13.60;;;;;;;18.16;50.69;100736.97;4961457;28;20042;-42
2023/04/22 09:59:28;;;;;;;18.30;13.52;;;;;;;18.23;51.37;100741.22;4964683;28;20039;-45
2023/04/22 10:01:56;;;;;;;16.60;13.13;;;;;;;18.03;52.81;100736.34;4962054;28;20397;-44
2023/04/22 10:04:24;;;;;;;17.50;12.63;;;;;;;18.91;49.32;100730.97;4964523;28;20387;-45
2023/04/22 10:06:50;;;;;;;17.38;12.52;;;;;;;18.41;49.98;100730.28;4960499;28;20117;-46
2023/04/22 10:09:20;;;;;;;18.63;12.82;;;;;;;18.52;50.51;100727.41;4964363;28;20585;-43
2023/04/22 10:11:47;;;;;;;16.83;12.40;;;;;;;19.12;47.88;100730.47;4961137;28;20035;-42
2023/04/22 10:14:13;;;;;;;16.27;12.32;;;;;;;19.15;47.66;100729.53;4964702;28;20122;-43
2023/04/22 10:16:40;;;;;;;17.05;12.60;;;;;;;18.42;49.06;100736.44;4960384;28;20147;-44
2023/04/22 10:19:12;;;;;;;15.93;12.30;;;;;;;19.06;45.48;100730.63;4964960;28;20117;-43
2023/04/22 10:21:40;;;;;;;17.52;11.52;;;;;;;18.75;47.11;100721.66;4961705;28;20093;-44
2023/04/22 10:24:05;;;;;;;14.35;11.43;;;;;;;19.15;46.19;100730.38;4965605;28;20041;-44
2023/04/22 10:26:53;;;;;;;15.75;12.25;;;;;;;19.05;47.04;100726.22;4967254;28;20027;-44
2023/04/22 10:29:20;;;;;;;15.73;11.35;;;;;;;18.81;47.22;100726.81;4967061;28;20101;-43
2023/04/22 10:32:02;;;;;;;15.20;11.88;;;;;;;18.47;47.52;100724.00;4963988;28;20043;-47
2023/04/22 10:34:28;;;;;;;18.52;12.95;;;;;;;18.27;48.47;100724.41;4968552;28;20035;-44
2023/04/22 10:37:05;;;;;;;18.15;13.27;;;;;;;17.84;49.87;100735.81;4967579;28;20095;-44
2023/04/22 10:39:39;;;;;;;20.80;14.82;;;;;;;17.59;50.17;100737.09;4968703;28;20497;-43
2023/04/22 10:42:05;;;;;;;18.85;14.68;;;;;;;17.58;50.95;100738.00;4961775;28;20030;-42
2023/04/22 10:44:45;;;;;;;21.08;15.55;;;;;;;17.23;53.13;100749.13;4964349;28;21004;-44
2023/04/22 10:47:11;;;;;;;24.55;17.33;;;;;;;17.12;53.01;100751.06;4962541;28;20494;-47
2023/04/22 10:49:36;;;;;;;27.58;18.83;;;;;;;16.57;53.44;100738.66;4960455;28;20047;-47
2023/04/22 10:52:04;;;;;;;26.02;18.90;;;;;;;16.83;54.14;100729.56;4963755;28;20027;-43
2023/04/22 10:54:30;;;;;;;25.23;17.90;;;;;;;17.13;52.51;100733.50;4964688;28;20035;-43
2023/04/22 10:57:00;;;;;;;21.98;16.15;;;;;;;17.38;51.08;100725.16;4964673;28;20125;-44
2023/04/22 10:59:26;;;;;;;24.15;16.90;;;;;;;17.60;51.40;100724.81;4969124;28;20391;-46
2023/04/22 11:01:51;;;;;;;22.08;16.02;;;;;;;17.44;52.34;100721.56;4967425;28;20046;-44
2023/04/22 11:04:24;;;;;;;22.48;15.48;;;;;;;17.09;54.02;100722.13;4970051;28;20164;-47
2023/04/22 11:07:15;;;;;;;22.75;16.40;;;;;;;16.98;55.62;100732.84;4966598;28;20051;-44